Time;durP1;ratioP1;P1;durP2;ratioP2;P2;SDS_P1;SDS_P2;PMS_P1;PMS_P2;Temp;Humidity;BMP_temperature;BMP_pressure;BME280_temperature;BME280_humidity;BME280_pressure;Samples;Min_cycle;Max_cycle;Signal;HPM_P1;HPM_P2
2023/02/14 00:01:26;;;;;;;21.30;14.20;;;1.30;99.90;;;;;;5033944;28;20236;-56
2023/02/14 00:03:53;;;;;;;23.43;15.37;;;1.10;99.90;;;;;;5033682;28;20245;-55
2023/02/14 00:06:21;;;;;;;20.97;14.50;;;1.10;99.90;;;;;;5033358;28;20274;-55
2023/02/14 00:08:48;;;;;;;22.83;15.07;;;1.10;99.90;;;;;;5033818;28;20216;-55
2023/02/14 00:11:14;;;;;;;22.53;14.77;;;1.10;99.90;;;;;;5033979;28;20210;-56
2023/02/14 00:15:20;;;;;;;21.03;14.43;;;1.20;99.90;;;;;;5033945;28;20598;-56
2023/02/14 00:16:28;;;;;;;22.30;14.43;;;1.10;99.90;;;;;;5033733;28;20327;-55
2023/02/14 00:19:04;;;;;;;21.83;14.27;;;1.20;99.90;;;;;;5033807;28;20670;-56
2023/02/14 00:21:35;;;;;;;22.63;14.23;;;1.10;99.90;;;;;;5033922;28;20213;-55
2023/02/14 00:24:02;;;;;;;21.37;14.30;;;1.00;99.90;;;;;;5033496;28;20322;-55
2023/02/14 00:26:28;;;;;;;21.47;14.43;;;1.00;99.90;;;;;;5033120;28;20230;-55
2023/02/14 00:28:55;;;;;;;23.67;15.03;;;1.00;99.90;;;;;;5033470;28;20616;-55
2023/02/14 00:31:22;;;;;;;22.83;15.10;;;1.00;99.90;;;;;;5033181;28;20209;-56
2023/02/14 00:33:49;;;;;;;22.50;15.20;;;1.00;99.90;;;;;;5033528;28;20614;-56
2023/02/14 00:36:17;;;;;;;23.07;14.83;;;1.00;99.90;;;;;;5033372;28;20577;-56
2023/02/14 00:38:45;;;;;;;21.97;14.07;;;0.90;99.90;;;;;;5033486;28;20214;-56
2023/02/14 00:41:17;;;;;;;22.67;15.37;;;0.80;99.90;;;;;;5033207;28;20264;-55
2023/02/14 00:43:45;;;;;;;21.40;14.10;;;0.80;99.90;;;;;;5032850;28;20234;-56
2023/02/14 00:46:11;;;;;;;22.20;14.17;;;0.60;99.90;;;;;;5033110;28;20301;-55
2023/02/14 00:48:38;;;;;;;22.17;14.73;;;0.50;99.90;;;;;;5033047;28;20674;-56
2023/02/14 00:51:05;;;;;;;22.07;14.40;;;0.50;99.90;;;;;;5032917;28;20666;-55
2023/02/14 00:53:32;;;;;;;21.70;13.83;;;0.50;99.90;;;;;;5033019;28;20221;-56
2023/02/14 00:56:00;;;;;;;23.57;14.80;;;0.50;99.90;;;;;;5032710;28;20206;-56
2023/02/14 00:58:27;;;;;;;24.63;14.97;;;0.60;99.90;;;;;;5033042;28;20252;-55
2023/02/14 01:00:54;;;;;;;19.90;13.93;;;0.70;99.90;;;;;;5032765;28;20569;-55
2023/02/14 01:03:21;;;;;;;22.13;14.83;;;0.70;99.90;;;;;;5032343;28;20713;-56
2023/02/14 01:05:48;;;;;;;21.13;14.40;;;0.90;99.90;;;;;;5032590;28;20218;-55
2023/02/14 01:08:15;;;;;;;21.87;14.00;;;0.90;99.90;;;;;;5032717;28;20213;-55
2023/02/14 01:10:42;;;;;;;23.33;15.13;;;1.00;99.90;;;;;;5032686;28;20674;-55
2023/02/14 01:13:10;;;;;;;24.07;14.67;;;1.00;99.90;;;;;;5032917;28;20213;-56
2023/02/14 01:15:39;;;;;;;22.30;14.67;;;0.90;99.90;;;;;;5032648;28;20213;-55
2023/02/14 01:18:06;;;;;;;20.97;14.40;;;0.80;99.90;;;;;;5032717;28;20623;-55
2023/02/14 01:20:34;;;;;;;21.73;13.97;;;0.70;99.90;;;;;;5032636;28;20260;-56
2023/02/14 01:23:01;;;;;;;24.30;15.47;;;0.70;99.90;;;;;;5032538;28;20636;-55
2023/02/14 01:25:28;;;;;;;19.87;13.70;;;0.70;99.90;;;;;;5032266;28;20273;-56
2023/02/14 01:27:55;;;;;;;21.50;13.80;;;0.60;99.90;;;;;;5032644;28;20201;-56
2023/02/14 01:30:23;;;;;;;21.17;14.40;;;0.50;99.90;;;;;;5032534;28;20206;-56
2023/02/14 01:32:50;;;;;;;21.57;14.43;;;0.60;99.90;;;;;;5032384;28;20218;-56
2023/02/14 01:35:17;;;;;;;22.13;14.30;;;0.70;99.90;;;;;;5032045;28;20229;-55
2023/02/14 01:37:43;;;;;;;22.93;14.57;;;0.80;99.90;;;;;;5032215;28;20206;-56
2023/02/14 01:40:12;;;;;;;21.03;14.23;;;0.80;99.90;;;;;;5032415;28;20217;-56
2023/02/14 01:42:39;;;;;;;21.57;14.20;;;0.70;99.90;;;;;;5032442;28;20210;-56
2023/02/14 01:45:15;;;;;;;22.43;14.17;;;0.50;99.90;;;;;;5031671;28;20412;-55
2023/02/14 01:47:45;;;;;;;21.97;14.43;;;0.40;99.90;;;;;;5032311;28;20210;-56
2023/02/14 01:50:15;;;;;;;21.93;14.43;;;0.40;99.90;;;;;;5032044;28;20206;-56
2023/02/14 01:52:46;;;;;;;21.33;14.60;;;0.40;99.90;;;;;;5032459;28;20210;-56
2023/02/14 01:55:19;;;;;;;23.57;14.03;;;0.40;99.90;;;;;;5031447;28;20222;-56
2023/02/14 01:57:51;;;;;;;20.47;13.53;;;0.40;99.90;;;;;;5031997;28;20210;-57
2023/02/14 02:03:06;;;;;;;22.17;14.83;;;0.20;99.90;;;;;;5031822;28;20688;-56
2023/02/14 02:05:33;;;;;;;23.80;14.73;;;0.10;99.90;;;;;;5031458;28;20248;-56
2023/02/14 02:08:01;;;;;;;23.13;15.23;;;0.10;99.90;;;;;;5031558;28;20560;-55
2023/02/14 02:10:28;;;;;;;22.63;15.30;;;0.10;99.90;;;;;;5031689;28;20241;-55
2023/02/14 02:12:55;;;;;;;21.27;14.10;;;0.20;99.90;;;;;;5031655;28;20206;-56
2023/02/14 02:15:26;;;;;;;22.43;15.03;;;0.20;99.90;;;;;;5030656;28;20202;-56
2023/02/14 02:18:02;;;;;;;23.27;14.67;;;0.30;99.90;;;;;;5031766;28;20241;-56
2023/02/14 02:20:48;;;;;;;23.67;15.43;;;0.30;99.90;;;;;;5031484;28;20619;-56
2023/02/14 02:23:39;;;;;;;21.53;14.03;;;0.20;99.90;;;;;;5031389;28;20210;-56
2023/02/14 02:26:51;;;;;;;21.63;14.13;;;0.20;99.90;;;;;;5031303;28;20352;-55
2023/02/14 02:29:52;;;;;;;22.93;14.50;;;0.20;99.90;;;;;;5031446;28;20289;-56
2023/02/14 02:32:56;;;;;;;22.53;14.60;;;0.30;99.90;;;;;;5031328;28;20670;-56
2023/02/14 02:36:04;;;;;;;23.63;14.80;;;0.40;99.90;;;;;;5031201;28;20202;-56
2023/02/14 02:38:48;;;;;;;20.37;13.50;;;0.50;99.90;;;;;;5031413;28;20210;-56
2023/02/14 02:41:22;;;;;;;24.43;14.70;;;0.50;99.90;;;;;;5031490;28;20214;-54
2023/02/14 02:43:56;;;;;;;23.63;15.10;;;0.50;99.90;;;;;;5049537;22;20317;-61
2023/02/14 02:46:48;;;;;;;20.83;13.57;;;0.50;99.90;;;;;;5021087;28;20242;-61
2023/02/14 02:55:11;;;;;;;22.27;14.27;;;0.80;99.90;;;;;;5045601;28;20389;-61
2023/02/14 02:57:40;;;;;;;22.37;14.20;;;0.50;99.90;;;;;;5051296;28;20564;-61
2023/02/14 03:00:11;;;;;;;21.27;14.03;;;0.50;99.90;;;;;;5050750;28;20731;-61
2023/02/14 03:05:22;;;;;;;20.27;14.20;;;0.60;99.90;;;;;;5050135;28;20744;-61
2023/02/14 03:07:51;;;;;;;22.87;14.67;;;0.60;99.90;;;;;;5050892;28;20228;-61
2023/02/14 03:10:19;;;;;;;20.97;15.00;;;0.70;99.90;;;;;;5050802;28;20221;-62
2023/02/14 03:13:13;;;;;;;23.20;15.03;;;0.80;99.90;;;;;;5050880;28;20213;-62
2023/02/14 03:15:51;;;;;;;22.27;15.27;;;0.80;99.90;;;;;;5050573;28;20275;-62
2023/02/14 03:21:25;;;;;;;25.67;15.97;;;0.90;99.90;;;;;;5050761;28;20208;-62
2023/02/14 03:23:58;;;;;;;22.07;14.53;;;0.90;99.90;;;;;;5050406;28;20233;-61
2023/02/14 03:26:33;;;;;;;20.87;13.77;;;0.90;99.90;;;;;;5052257;28;20312;-61
2023/02/14 03:29:06;;;;;;;22.10;15.13;;;0.90;99.90;;;;;;5054528;28;20212;-61
2023/02/14 03:31:37;;;;;;;20.23;13.37;;;1.00;99.90;;;;;;5054612;28;20201;-61
2023/02/14 03:34:11;;;;;;;22.30;14.73;;;1.00;99.90;;;;;;5054615;28;20320;-61
2023/02/14 03:36:42;;;;;;;22.07;14.67;;;1.10;99.90;;;;;;5054014;28;20202;-61
2023/02/14 03:39:17;;;;;;;22.53;13.97;;;1.10;99.90;;;;;;5054337;28;20292;-61
2023/02/14 03:41:50;;;;;;;20.63;14.27;;;1.20;99.90;;;;;;5054553;28;20213;-61
2023/02/14 03:44:21;;;;;;;23.60;14.37;;;1.20;99.90;;;;;;5054109;28;20619;-61
2023/02/14 03:46:51;;;;;;;20.07;13.93;;;1.10;99.90;;;;;;5054020;28;20308;-62
2023/02/14 03:49:21;;;;;;;20.60;13.33;;;1.10;99.90;;;;;;5054689;28;20614;-61
2023/02/14 03:51:51;;;;;;;20.73;13.90;;;1.00;99.90;;;;;;5054359;28;20630;-61
2023/02/14 03:54:20;;;;;;;20.43;13.67;;;1.00;99.90;;;;;;5053950;28;20229;-61
2023/02/14 03:56:51;;;;;;;20.97;14.07;;;0.90;99.90;;;;;;5053751;28;20656;-62
2023/02/14 03:59:20;;;;;;;19.40;12.80;;;0.90;99.90;;;;;;5054011;28;20209;-62
2023/02/14 04:01:51;;;;;;;20.10;13.50;;;0.70;99.90;;;;;;5054026;28;20209;-62
2023/02/14 04:04:20;;;;;;;19.17;13.20;;;0.60;99.90;;;;;;5054035;28;20233;-61
2023/02/14 04:06:47;;;;;;;19.17;13.27;;;0.50;99.90;;;;;;5053364;28;20225;-61
2023/02/14 04:09:14;;;;;;;21.07;13.83;;;0.30;99.90;;;;;;5053933;28;20201;-61
2023/02/14 04:11:42;;;;;;;20.57;13.43;;;0.20;99.90;;;;;;5054225;28;20367;-61
2023/02/14 04:14:09;;;;;;;20.20;13.63;;;0.20;99.90;;;;;;5053663;28;20303;-61
2023/02/14 04:21:57;;;;;;;19.07;12.93;;;0.10;99.90;;;;;;5055096;28;20241;-61
2023/02/14 04:24:24;;;;;;;18.73;13.20;;;0.20;99.90;;;;;;5053612;28;20229;-61
2023/02/14 04:27:09;;;;;;;22.03;13.43;;;0.20;99.90;;;;;;5053291;28;20602;-62
2023/02/14 04:29:37;;;;;;;28.17;16.63;;;0.20;99.90;;;;;;5053496;28;20209;-62
2023/02/14 04:32:04;;;;;;;25.13;15.03;;;0.20;99.90;;;;;;5053510;28;20296;-62
2023/02/14 04:34:30;;;;;;;21.90;14.03;;;0.30;99.90;;;;;;5053562;28;20615;-62
2023/02/14 04:36:57;;;;;;;21.47;14.33;;;0.30;99.90;;;;;;5052787;28;20206;-62
2023/02/14 04:39:24;;;;;;;19.77;13.73;;;0.40;99.90;;;;;;5053440;28;20216;-62
2023/02/14 04:41:52;;;;;;;20.43;13.67;;;0.50;99.90;;;;;;5053518;28;20206;-62
2023/02/14 04:44:19;;;;;;;19.77;13.77;;;0.50;99.90;;;;;;5053190;28;20257;-61
2023/02/14 04:46:46;;;;;;;18.67;13.17;;;0.50;99.90;;;;;;5052950;28;20294;-61
2023/02/14 04:49:13;;;;;;;18.93;13.13;;;0.50;99.90;;;;;;5053124;28;20288;-62
2023/02/14 04:51:39;;;;;;;20.10;13.73;;;0.50;99.90;;;;;;5052950;28;20212;-61
2023/02/14 04:54:06;;;;;;;18.77;12.50;;;0.60;99.90;;;;;;5053033;28;20275;-61
2023/02/14 04:56:33;;;;;;;21.87;14.07;;;0.60;99.90;;;;;;5052725;28;20209;-62
2023/02/14 04:59:01;;;;;;;21.27;13.63;;;0.60;99.90;;;;;;5052770;28;20213;-61
2023/02/14 05:01:28;;;;;;;19.50;13.40;;;0.70;99.90;;;;;;5053020;28;20209;-62
2023/02/14 05:03:54;;;;;;;19.17;12.77;;;0.70;99.90;;;;;;5052910;28;20229;-62
2023/02/14 05:06:21;;;;;;;18.87;13.30;;;0.60;99.90;;;;;;5052546;28;20286;-62
2023/02/14 05:08:48;;;;;;;20.50;13.73;;;0.70;99.90;;;;;;5052875;28;20255;-62
2023/02/14 05:11:15;;;;;;;22.37;14.30;;;0.70;99.90;;;;;;5052809;28;20206;-62
2023/02/14 05:13:41;;;;;;;19.87;13.23;;;0.80;99.90;;;;;;5052520;28;20230;-62
2023/02/14 05:16:09;;;;;;;21.03;13.33;;;0.90;99.90;;;;;;5052351;28;20209;-63
2023/02/14 05:18:36;;;;;;;20.43;14.57;;;0.90;99.90;;;;;;5052577;28;20205;-62
2023/02/14 05:21:03;;;;;;;20.23;14.53;;;1.00;99.90;;;;;;5052862;28;20209;-63
2023/02/14 05:23:29;;;;;;;21.77;14.10;;;1.00;99.90;;;;;;5052562;28;20263;-63
2023/02/14 05:25:56;;;;;;;22.77;15.67;;;1.10;99.90;;;;;;5052368;28;20205;-62
2023/02/14 05:28:23;;;;;;;23.23;15.83;;;1.10;99.90;;;;;;5052578;28;20309;-62
2023/02/14 05:30:50;;;;;;;21.70;14.90;;;1.10;99.90;;;;;;5052331;28;20677;-63
2023/02/14 05:33:19;;;;;;;21.50;15.33;;;1.10;99.90;;;;;;5051800;28;20205;-62
2023/02/14 05:35:45;;;;;;;21.07;14.17;;;1.10;99.90;;;;;;5051970;28;20634;-62
2023/02/14 05:38:12;;;;;;;20.07;14.03;;;1.00;99.90;;;;;;5052499;28;20224;-63
2023/02/14 05:40:39;;;;;;;19.20;14.33;;;1.00;99.90;;;;;;5052281;28;20296;-62
2023/02/14 05:43:07;;;;;;;19.77;13.93;;;1.00;99.90;;;;;;5052227;28;20221;-62
2023/02/14 05:45:33;;;;;;;19.23;14.00;;;1.00;99.90;;;;;;5051637;28;20721;-62
2023/02/14 05:48:00;;;;;;;20.43;14.17;;;0.90;99.90;;;;;;5051841;28;20233;-62
2023/02/14 05:50:28;;;;;;;19.63;13.20;;;0.80;99.90;;;;;;5050923;28;20727;-62
2023/02/14 05:52:55;;;;;;;21.50;14.47;;;0.70;99.90;;;;;;5052077;28;20209;-61
2023/02/14 05:55:23;;;;;;;23.33;16.83;;;0.60;99.90;;;;;;5051400;28;20229;-61
2023/02/14 05:57:50;;;;;;;24.87;15.90;;;0.60;99.90;;;;;;5051676;28;20237;-61
2023/02/14 06:00:18;;;;;;;20.43;13.97;;;0.70;99.90;;;;;;5051559;28;20669;-61
2023/02/14 06:02:44;;;;;;;23.37;15.00;;;0.70;99.90;;;;;;5051845;28;20205;-62
2023/02/14 06:05:11;;;;;;;20.10;13.87;;;0.80;99.90;;;;;;5051340;28;20226;-62
2023/02/14 06:07:41;;;;;;;38.87;22.60;;;0.80;99.90;;;;;;5051439;28;20248;-61
2023/02/14 06:10:09;;;;;;;29.67;17.93;;;0.80;99.90;;;;;;5051237;28;20588;-62
2023/02/14 06:12:36;;;;;;;23.67;15.07;;;0.80;99.90;;;;;;5051390;28;20209;-61
2023/02/14 06:15:03;;;;;;;24.90;16.57;;;0.80;99.90;;;;;;5051228;28;20271;-61
2023/02/14 06:17:30;;;;;;;28.30;16.00;;;0.90;99.90;;;;;;5051618;28;20274;-61
2023/02/14 06:19:56;;;;;;;32.27;19.30;;;0.90;99.90;;;;;;5051630;28;20631;-61
2023/02/14 06:22:23;;;;;;;20.13;13.87;;;0.90;99.90;;;;;;5051611;28;20209;-62
2023/02/14 06:24:51;;;;;;;37.83;19.80;;;0.90;99.90;;;;;;5051105;28;20233;-61
2023/02/14 06:27:18;;;;;;;24.10;15.27;;;1.00;99.90;;;;;;5051242;28;20236;-61
2023/02/14 06:29:44;;;;;;;36.53;20.63;;;1.00;99.90;;;;;;5051131;28;20295;-64
2023/02/14 06:32:11;;;;;;;27.33;16.57;;;1.00;99.90;;;;;;5051691;28;20205;-63
2023/02/14 06:34:38;;;;;;;24.47;15.20;;;1.10;99.90;;;;;;5051378;28;20226;-62
2023/02/14 06:37:05;;;;;;;23.47;14.33;;;1.00;99.90;;;;;;5051326;28;20213;-63
2023/02/14 06:39:32;;;;;;;22.97;14.67;;;1.00;99.90;;;;;;5051614;28;20240;-63
2023/02/14 06:42:00;;;;;;;19.37;13.70;;;1.00;99.90;;;;;;5051171;28;20217;-63
2023/02/14 06:44:26;;;;;;;20.07;13.47;;;0.90;99.90;;;;;;5051093;28;20288;-62
2023/02/14 06:46:53;;;;;;;22.60;14.80;;;0.90;99.90;;;;;;5050849;28;20237;-63
2023/02/14 06:49:20;;;;;;;18.23;13.40;;;0.90;99.90;;;;;;5050988;28;20285;-62
2023/02/14 06:51:46;;;;;;;27.33;18.33;;;1.00;99.90;;;;;;5051422;28;20224;-63
2023/02/14 06:54:13;;;;;;;26.70;17.07;;;1.00;99.90;;;;;;5050877;28;20628;-63
2023/02/14 06:56:40;;;;;;;21.63;13.93;;;1.10;99.90;;;;;;5050675;28;20209;-63
2023/02/14 06:59:08;;;;;;;23.47;15.30;;;1.10;99.90;;;;;;5051359;28;20212;-63
2023/02/14 07:01:34;;;;;;;22.47;13.30;;;1.20;99.90;;;;;;5053431;28;20258;-63
2023/02/14 07:04:01;;;;;;;21.67;14.43;;;1.30;99.90;;;;;;5055204;28;20600;-64
2023/02/14 07:06:28;;;;;;;20.00;13.70;;;1.30;99.90;;;;;;5054795;28;20271;-63
2023/02/14 07:08:55;;;;;;;18.87;13.73;;;1.40;99.90;;;;;;5054996;28;20219;-63
2023/02/14 07:11:21;;;;;;;21.50;14.47;;;1.40;99.90;;;;;;5054876;28;20294;-62
2023/02/14 07:13:48;;;;;;;19.23;13.40;;;1.50;99.90;;;;;;5054762;28;20221;-62
2023/02/14 07:16:16;;;;;;;21.70;14.33;;;1.70;99.90;;;;;;5054612;28;20209;-62
2023/02/14 07:18:43;;;;;;;19.80;14.60;;;2.20;99.90;;;;;;5054575;28;20617;-62
2023/02/14 07:21:10;;;;;;;18.87;13.27;;;2.80;99.90;;;;;;5054725;28;20209;-62
2023/02/14 07:23:36;;;;;;;18.90;13.17;;;3.40;99.90;;;;;;5054873;28;20649;-63
2023/02/14 07:26:03;;;;;;;17.97;12.80;;;4.00;99.90;;;;;;5055033;28;20213;-65
2023/02/14 07:28:30;;;;;;;15.57;12.10;;;4.50;99.90;;;;;;5054612;28;20225;-63
2023/02/14 07:30:59;;;;;;;18.83;12.90;;;4.60;99.90;;;;;;5054744;28;20300;-63
2023/02/14 07:33:27;;;;;;;17.07;12.73;;;4.50;99.90;;;;;;5054398;28;20267;-62
2023/02/14 07:35:54;;;;;;;17.43;12.63;;;4.20;99.90;;;;;;5054232;28;20677;-63
2023/02/14 07:38:21;;;;;;;17.53;13.03;;;4.10;99.90;;;;;;5054209;28;20279;-63
2023/02/14 07:40:47;;;;;;;16.53;12.63;;;3.90;99.90;;;;;;5054460;28;20685;-63
2023/02/14 07:43:14;;;;;;;26.77;17.90;;;3.70;99.90;;;;;;5054267;28;20206;-63
2023/02/14 07:45:41;;;;;;;18.37;13.17;;;3.60;99.90;;;;;;5053851;28;20248;-63
2023/02/14 07:48:07;;;;;;;19.07;13.90;;;3.50;99.90;;;;;;5054595;28;20225;-63
2023/02/14 07:50:35;;;;;;;20.03;13.33;;;3.50;99.90;;;;;;5054163;28;20205;-63
2023/02/14 07:53:02;;;;;;;19.03;13.20;;;3.40;99.90;;;;;;5054227;28;20723;-63
2023/02/14 07:55:29;;;;;;;21.07;13.23;;;3.40;99.90;;;;;;5054038;28;20226;-63
2023/02/14 07:57:55;;;;;;;18.00;13.13;;;3.30;99.90;;;;;;5054416;28;20233;-63
2023/02/14 08:00:23;;;;;;;19.87;13.07;;;3.30;99.90;;;;;;5054152;28;20209;-62
2023/02/14 08:02:49;;;;;;;18.30;13.17;;;3.40;99.90;;;;;;5054015;28;20206;-63
2023/02/14 08:05:16;;;;;;;19.17;13.57;;;3.40;99.90;;;;;;5053928;28;20576;-63
2023/02/14 08:07:46;;;;;;;18.53;13.67;;;3.40;99.90;;;;;;5054101;28;20283;-64
2023/02/14 08:10:12;;;;;;;19.50;13.83;;;3.40;99.90;;;;;;5054235;28;20209;-63
2023/02/14 08:18:07;;;;;;;20.03;13.60;;;3.40;99.90;;;;;;5053949;28;20204;-63
2023/02/14 08:20:34;;;;;;;20.60;13.17;;;3.50;99.90;;;;;;5053990;28;20208;-63
2023/02/14 08:23:02;;;;;;;19.27;14.20;;;3.60;99.90;;;;;;5054026;28;20221;-63
2023/02/14 08:25:29;;;;;;;20.27;14.60;;;3.70;99.90;;;;;;5053455;28;20225;-63
2023/02/14 08:27:56;;;;;;;19.97;14.23;;;3.80;99.90;;;;;;5053592;28;20252;-63
2023/02/14 08:30:22;;;;;;;17.83;13.93;;;3.90;99.90;;;;;;5053674;28;20206;-63
2023/02/14 08:32:49;;;;;;;19.23;13.70;;;4.00;99.90;;;;;;5053581;28;20624;-63
2023/02/14 08:35:16;;;;;;;19.33;13.60;;;4.10;99.90;;;;;;5053303;28;20248;-63
2023/02/14 08:37:43;;;;;;;18.90;14.40;;;4.20;99.90;;;;;;5053585;28;20197;-63
2023/02/14 08:40:12;;;;;;;21.90;15.33;;;4.30;99.90;;;;;;5053224;28;20696;-62
2023/02/14 08:42:38;;;;;;;20.27;15.03;;;4.30;99.90;;;;;;5053236;28;20229;-63
2023/02/14 08:45:06;;;;;;;19.50;14.53;;;4.20;99.90;;;;;;5056026;22;20701;-57
2023/02/14 08:47:34;;;;;;;18.73;13.67;;;4.00;99.90;;;;;;5033554;28;20225;-56
2023/02/14 08:50:02;;;;;;;18.20;13.37;;;4.00;99.90;;;;;;5033427;28;20210;-57
2023/02/14 08:52:28;;;;;;;16.73;12.63;;;4.00;99.90;;;;;;5033366;28;20340;-57
2023/02/14 08:54:55;;;;;;;21.67;13.10;;;4.10;99.90;;;;;;5033203;28;20237;-57
2023/02/14 08:57:23;;;;;;;16.27;12.37;;;4.20;99.90;;;;;;5032871;28;20202;-57
2023/02/14 08:59:50;;;;;;;17.87;12.70;;;4.30;99.90;;;;;;5033412;28;20221;-57
2023/02/14 09:02:16;;;;;;;17.43;12.37;;;4.40;99.90;;;;;;5033045;28;20673;-57
2023/02/14 09:04:43;;;;;;;15.13;11.70;;;4.40;99.90;;;;;;5032823;28;20592;-56
2023/02/14 09:07:11;;;;;;;17.10;12.43;;;4.50;99.90;;;;;;5032915;28;20206;-56
2023/02/14 09:09:38;;;;;;;16.97;12.57;;;4.50;99.90;;;;;;5032958;28;20211;-62
2023/02/14 09:12:07;;;;;;;17.10;12.17;;;4.60;99.90;;;;;;5032426;28;20206;-59
2023/02/14 09:14:37;;;;;;;15.70;12.07;;;4.60;99.90;;;;;;5032298;28;20272;-54
2023/02/14 09:17:05;;;;;;;17.53;12.40;;;4.70;99.90;;;;;;5032671;28;20207;-54
2023/02/14 09:19:32;;;;;;;17.37;13.17;;;4.80;99.90;;;;;;5032517;28;20209;-56
2023/02/14 09:21:59;;;;;;;17.77;13.13;;;5.00;99.90;;;;;;5032698;28;20704;-56
2023/02/14 09:24:26;;;;;;;17.57;12.30;;;5.20;99.90;;;;;;5031906;28;20718;-55
2023/02/14 09:26:53;;;;;;;16.57;12.77;;;5.30;99.90;;;;;;5032014;28;20214;-55
2023/02/14 09:29:20;;;;;;;15.47;11.90;;;5.30;99.90;;;;;;5032281;28;20279;-55
2023/02/14 09:31:48;;;;;;;19.20;12.90;;;5.40;99.90;;;;;;5032352;28;20206;-55
2023/02/14 09:34:15;;;;;;;15.20;11.50;;;5.50;99.90;;;;;;5032110;28;20588;-55
2023/02/14 09:39:26;;;;;;;16.67;12.53;;;5.70;99.90;;;;;;5032283;28;20276;-56
2023/02/14 09:42:10;;;;;;;15.87;11.97;;;6.00;99.90;;;;;;5032490;28;20210;-56
2023/02/14 09:44:41;;;;;;;14.17;10.97;;;6.20;99.90;;;;;;5031863;28;20333;-56
2023/02/14 09:47:19;;;;;;;18.07;13.23;;;6.30;99.90;;;;;;5031932;28;20203;-55
2023/02/14 09:49:47;;;;;;;16.63;12.47;;;6.40;99.90;;;;;;5032396;28;20202;-56
2023/02/14 09:52:15;;;;;;;15.97;11.97;;;6.50;99.90;;;;;;5032104;28;20209;-57
2023/02/14 09:54:46;;;;;;;16.93;12.57;;;6.60;99.90;;;;;;5032022;28;20232;-56
2023/02/14 09:57:22;;;;;;;17.33;12.40;;;6.70;99.90;;;;;;5031737;28;20319;-56
2023/02/14 09:59:53;;;;;;;16.83;12.60;;;6.80;99.90;;;;;;5031757;28;20681;-57
2023/02/14 10:02:38;;;;;;;15.47;11.77;;;6.80;99.90;;;;;;5031781;28;20717;-56
2023/02/14 10:05:14;;;;;;;16.67;12.80;;;6.90;99.90;;;;;;5031687;28;20272;-56
2023/02/14 10:07:56;;;;;;;15.80;12.03;;;7.00;99.90;;;;;;5031306;28;20210;-56
2023/02/14 10:10:29;;;;;;;15.33;11.53;;;7.10;99.90;;;;;;5031423;28;20302;-56
2023/02/14 10:13:02;;;;;;;17.03;12.67;;;7.30;99.90;;;;;;5031354;28;20249;-57
2023/02/14 10:15:34;;;;;;;17.87;12.07;;;7.40;99.90;;;;;;5031399;28;20569;-57
2023/02/14 10:18:05;;;;;;;15.83;11.67;;;7.50;99.90;;;;;;5031333;28;20198;-56
2023/02/14 10:20:35;;;;;;;16.30;12.33;;;7.60;99.90;;;;;;5031533;28;20209;-55
2023/02/14 10:23:05;;;;;;;15.83;12.30;;;7.60;99.90;;;;;;5031387;28;20202;-56
2023/02/14 10:25:42;;;;;;;17.17;12.40;;;7.70;99.90;;;;;;5031454;28;20226;-57
2023/02/14 10:28:13;;;;;;;18.23;13.47;;;7.80;99.90;;;;;;5031161;28;20706;-56
2023/02/14 10:30:49;;;;;;;15.50;12.50;;;7.90;99.90;;;;;;5031369;28;20202;-57
2023/02/14 10:33:21;;;;;;;17.50;12.50;;;8.00;99.90;;;;;;5031484;28;20580;-58
2023/02/14 10:35:51;;;;;;;15.53;12.37;;;8.10;99.90;;;;;;5030412;28;20704;-56
2023/02/14 10:38:39;;;;;;;16.10;12.03;;;8.10;99.90;;;;;;5031155;28;20634;-57
2023/02/14 10:41:27;;;;;;;15.87;12.50;;;8.20;99.90;;;;;;5031335;28;20210;-56
2023/02/14 10:44:09;;;;;;;17.17;12.20;;;8.30;99.90;;;;;;5030954;28;20210;-57
2023/02/14 10:46:42;;;;;;;14.93;11.40;;;8.50;99.90;;;;;;5030948;28;20217;-56
2023/02/14 10:49:27;;;;;;;15.47;11.37;;;8.50;99.90;;;;;;5031542;28;20218;-58
2023/02/14 10:51:58;;;;;;;14.07;11.30;;;8.60;99.90;;;;;;5031546;28;20198;-57
2023/02/14 10:54:27;;;;;;;15.93;12.10;;;8.60;99.90;;;;;;5031113;28;20222;-57
2023/02/14 10:56:59;;;;;;;12.43;11.07;;;8.70;99.90;;;;;;5030828;28;20554;-58
2023/02/14 10:59:30;;;;;;;15.93;12.60;;;8.90;99.90;;;;;;5025836;28;20442;-61
2023/02/14 11:02:00;;;;;;;15.20;11.30;;;9.00;99.90;;;;;;5029956;28;20210;-59
2023/02/14 11:04:31;;;;;;;14.60;11.50;;;9.20;99.90;;;;;;5029451;28;20721;-60
2023/02/14 11:06:58;;;;;;;14.53;11.03;;;9.40;99.90;;;;;;5030541;28;20260;-61
2023/02/14 11:09:24;;;;;;;14.83;12.27;;;9.50;99.90;;;;;;5030372;28;20280;-61
2023/02/14 11:11:54;;;;;;;14.20;10.83;;;9.60;99.90;;;;;;5026823;28;20218;-61
2023/02/14 11:14:24;;;;;;;15.97;11.80;;;9.80;99.90;;;;;;5028457;28;20230;-63
2023/02/14 11:16:53;;;;;;;15.80;11.70;;;9.80;99.90;;;;;;5029943;28;20203;-62
2023/02/14 11:19:23;;;;;;;14.67;11.57;;;9.80;99.90;;;;;;5029804;28;20241;-60
2023/02/14 11:21:53;;;;;;;13.80;11.33;;;9.90;99.90;;;;;;5029776;28;20259;-59
2023/02/14 11:24:27;;;;;;;16.20;12.27;;;10.00;99.90;;;;;;5029553;28;20226;-59
2023/02/14 11:26:56;;;;;;;14.10;12.03;;;10.10;99.90;;;;;;5029586;28;20213;-58
2023/02/14 11:29:27;;;;;;;17.87;12.20;;;10.20;99.90;;;;;;5029347;28;20273;-60
2023/02/14 11:31:55;;;;;;;14.70;11.80;;;10.30;99.90;;;;;;5029644;28;20225;-60
2023/02/14 11:34:35;;;;;;;14.83;12.00;;;10.50;99.90;;;;;;5029701;28;20393;-59
2023/02/14 11:37:16;;;;;;;15.10;11.97;;;10.60;99.90;;;;;;5029313;28;20202;-60
2023/02/14 11:39:43;;;;;;;16.17;12.20;;;10.80;99.90;;;;;;5029312;28;20334;-58
2023/02/14 11:42:12;;;;;;;17.10;11.90;;;10.80;99.90;;;;;;5029006;28;20293;-59
2023/02/14 11:44:54;;;;;;;15.27;11.90;;;10.70;99.90;;;;;;5029471;28;20234;-61
2023/02/14 11:47:26;;;;;;;15.10;11.23;;;10.90;99.90;;;;;;5030891;28;20210;-59
2023/02/14 11:49:59;;;;;;;17.13;12.93;;;11.10;99.90;;;;;;5033226;28;20338;-60
2023/02/14 11:52:28;;;;;;;16.87;13.27;;;11.30;99.90;;;;;;5032504;28;20749;-60
2023/02/14 11:54:57;;;;;;;14.60;11.70;;;11.30;99.90;;;;;;5033205;28;20578;-60
2023/02/14 11:57:27;;;;;;;15.80;12.33;;;11.30;99.90;;;;;;5032897;28;20194;-60
2023/02/14 11:59:56;;;;;;;14.47;11.50;;;11.30;99.90;;;;;;5033352;28;20297;-61
2023/02/14 12:02:28;;;;;;;14.70;11.30;;;11.20;99.90;;;;;;5033183;28;20623;-62
2023/02/14 12:04:58;;;;;;;14.23;12.00;;;11.40;99.90;;;;;;5032935;28;20237;-62
2023/02/14 12:07:30;;;;;;;17.63;12.07;;;11.70;99.90;;;;;;5033382;28;20210;-62
2023/02/14 12:10:19;;;;;;;14.73;11.80;;;11.80;99.90;;;;;;5033427;28;20230;-62
2023/02/14 12:12:52;;;;;;;14.67;11.53;;;11.80;99.90;;;;;;5032716;28;20225;-63
2023/02/14 12:15:37;;;;;;;15.50;11.80;;;11.80;99.90;;;;;;5032430;28;20603;-60
2023/02/14 12:18:29;;;;;;;14.70;11.53;;;11.80;99.90;;;;;;5032523;28;20205;-62
2023/02/14 12:21:00;;;;;;;16.90;12.27;;;12.00;99.90;;;;;;5029810;28;20214;-62
2023/02/14 12:23:39;;;;;;;16.37;12.43;;;12.20;99.90;;;;;;5032313;28;20203;-63
2023/02/14 12:26:14;;;;;;;15.63;12.00;;;12.30;99.90;;;;;;5032530;28;20798;-63
2023/02/14 12:28:47;;;;;;;16.23;12.20;;;12.30;99.90;;;;;;5032414;28;20260;-62
2023/02/14 12:31:15;;;;;;;15.57;11.97;;;12.40;99.90;;;;;;5032472;28;20202;-63
2023/02/14 12:33:42;;;;;;;14.23;11.30;;;12.50;99.90;;;;;;5032751;28;20530;-61
2023/02/14 12:36:16;;;;;;;14.73;11.90;;;12.40;99.90;;;;;;5032222;28;20206;-61
2023/02/14 12:38:52;;;;;;;15.53;12.13;;;12.30;99.90;;;;;;5032991;28;20201;-60
2023/02/14 12:41:30;;;;;;;16.33;12.57;;;12.00;99.90;;;;;;5031941;28;20214;-61
2023/02/14 12:44:01;;;;;;;19.97;12.60;;;11.90;99.90;;;;;;5032285;28;20241;-61
2023/02/14 12:47:03;;;;;;;17.60;13.03;;;11.80;99.90;;;;;;5032045;28;20577;-62
2023/02/14 12:49:46;;;;;;;16.30;13.00;;;11.80;99.90;;;;;;5032123;28;20233;-63
2023/02/14 12:52:44;;;;;;;16.63;13.27;;;12.00;99.90;;;;;;5031974;28;20301;-61
2023/02/14 12:55:36;;;;;;;15.23;12.47;;;11.90;99.90;;;;;;5031618;28;20233;-60
2023/02/14 12:58:10;;;;;;;14.83;12.20;;;12.00;99.90;;;;;;5031734;28;20209;-60
2023/02/14 13:00:46;;;;;;;17.73;13.57;;;12.00;99.90;;;;;;5031887;28;20201;-59
2023/02/14 13:03:45;;;;;;;20.23;14.07;;;12.10;99.90;;;;;;5031499;28;20206;-59
2023/02/14 13:06:20;;;;;;;16.10;13.13;;;12.10;99.90;;;;;;5010415;28;20214;-59
2023/02/14 13:09:22;;;;;;;15.90;12.93;;;12.20;99.90;;;;;;5031713;28;20292;-59
2023/02/14 13:11:59;;;;;;;18.07;13.73;;;12.20;99.90;;;;;;5032009;28;20242;-59
2023/02/14 13:14:41;;;;;;;17.73;13.63;;;12.20;99.90;;;;;;5031484;28;20320;-59
2023/02/14 13:17:18;;;;;;;16.83;13.63;;;12.40;99.90;;;;;;5031768;28;20206;-60
2023/02/14 13:19:52;;;;;;;16.30;13.63;;;12.50;99.90;;;;;;5031361;28;20209;-60
2023/02/14 13:22:22;;;;;;;18.50;13.50;;;12.40;99.90;;;;;;5031525;28;20190;-60